CheckWX is a tool to help pilots better visualize weather data.  It is not intended as a substitute for an official pre-flight weather briefing.

10:40:03 UTC

LIME METAR
Il Caravaggio International Airport
Bergamo, Italy
Current

20 mins ago

LIME 171020Z 23005KT 150V310 CAVOK 25/17 Q1015 NOSIG
Observed
Sep-17 @ 10:20 UTC
Wind
  • 230° at 5 KTS
Visibility
10,000+ meters
Flight Rules
VFR
Cloud Levels
  • Clear skies
Temperature
25°C / 77°F
Dewpoint
17°C / 63°F
Humidity
61%
Altimeter
29.97" Hg
Pressure
1014.92 hPa
Previous

50 mins ago

LIME 170950Z 22004KT 160V260 CAVOK 25/17 Q1016 NOSIG
Observed
Sep-17 @ 09:50 UTC
Wind
  • 220° at 4 KTS
Visibility
10,000+ meters
Flight Rules
VFR
Cloud Levels
  • Clear skies
Temperature
25°C / 77°F
Dewpoint
17°C / 63°F
Humidity
61%
Altimeter
30" Hg
Pressure
1015.92 hPa
Previous

1 hour ago

LIME 170920Z 21004KT 130V250 7000 NSC 24/17 Q1016 NOSIG
Observed
Sep-17 @ 09:20 UTC
Wind
  • 210° at 4 KTS
Visibility
7,000 meters
Flight Rules
MVFR
Cloud Levels
  • Clear skies
Temperature
24°C / 75°F
Dewpoint
17°C / 63°F
Humidity
65%
Altimeter
30" Hg
Pressure
1015.92 hPa